KMHE/MHE METAR and TAF weather

Enter ICAO airport designator
Station Type Date Time Source
KMHE METAR 2022/06/30 12:53 UTC NOAA

KMHE 301253Z AUTO 35007KT 10SM CLR 23/16 A2979 RMK AO2 SLP076 T02280161


Station Type Date Time Source
KMHE Decoded METAR 2022/06/30 12:53 UTC NOAA

MITCHELL MUNICIPAL AIRPORT, SD, United States (KMHE) 43-46N 98-02W
Jun 30, 2022 - 08:53 AM EDT / 2022.06.30 1253 UTC
Wind: from the N (350 degrees) at 8 MPH (7 KT):0
Visibility: 10 mile(s):0
Sky conditions: clear
Temperature: 73.0 F (22.8 C)
Dew Point: 61.0 F (16.1 C)
Relative Humidity: 65%
Pressure (altimeter): 29.79 in. Hg (1008 hPa)
ob: KMHE 301253Z AUTO 35007KT 10SM CLR 23/16 A2979 RMK AO2 SLP076 T02280161
cycle: 13

Station Type Date Time Source
KMHE TAF UTC NOAA

Error!

Example: see airport list